Weather History for Madisonville, KY

Change the Weather History Date:

Sunday, January 6, 2013

  Actual Average (KOWB) Record (KOWB)
Temperature  
Mean Temperature 34 °F -  
Max Temperature 43 °F 42 °F 70 °F (1946)
Min Temperature 25 °F 26 °F -12 °F (1940)
Degree Days  
Heating Degree Days 31    
Moisture  
Dew Point 31 °F    
Average Humidity 83    
Maximum Humidity 98    
Minimum Humidity 68    
Precipitation  
Precipitation 0.00 in - - ()
Sea Level Pressure  
Sea Level Pressure 30.25 in    
Wind  
Wind Speed 8 mph (West)    
Max Wind Speed 20 mph    
Max Gust Speed 28 mph    
Visibility 10 miles    
Events      
Averages and records for this station are not official NWS values.
T = Trace of Precipitation, MM = Missing Value Source: NWS Daily Summary

Daily Weather History Graph

Daily Weather History Graph

Search for Another Location

Airport:

Trip Planner

Search our weather history database for the weather conditions in past years. The results will help you decide how hot, cold, wet, or windy it might be!

Date:

Astronomy

Jan. 06, 2013 Rise Set
Actual Time 7:04 AM CST 4:47 PM CST
Civil Twilight 6:35 AM CST 5:16 PM CST
Nautical Twilight 6:02 AM CST 5:48 PM CST
Astronomical Twilight 5:31 AM CST 6:20 PM CST
Moon 1:21 AM CST (1/6) 12:11 PM CST (1/6)
Length of Visible Light 10h 40m
Length of Day
9h 42m
Waning Crescent, 33% of the Moon is Illuminated
Jan 6
Waning Crescent
Jan 11
New
Jan 18
First Quarter
Jan 26
Full
Feb 3
Last Quarter

Hourly Weather History & Observations

Time (CST) Temp. Windchill Dew Point Humidity Pressure Visibility Wind Dir Wind Speed Gust Speed Precip Events Conditions
12:15 AM 35.4 °F 30.5 °F 30.6 °F 82% 30.21 in 10.0 mi SSW 5.8 mph - N/A   Clear
12:35 AM 35.8 °F 30.1 °F 30.7 °F 82% 30.20 in 10.0 mi SSW 6.9 mph - N/A   Clear
12:55 AM 35.4 °F 29.7 °F 30.9 °F 84% 30.20 in 10.0 mi SW 6.9 mph - N/A   Scattered Clouds
1:15 AM 35.2 °F 28.1 °F 31.6 °F 87% 30.20 in 10.0 mi SW 9.2 mph - N/A   Overcast
1:35 AM 37.8 °F 30.7 °F 32.9 °F 83% 30.20 in 10.0 mi WSW 10.4 mph - N/A   Overcast
1:55 AM 38.3 °F 31.9 °F 33.3 °F 82% 30.19 in 10.0 mi WSW 9.2 mph - N/A   Overcast
2:15 AM 38.8 °F 32.1 °F 33.1 °F 80% 30.18 in 10.0 mi WSW 10.4 mph - N/A   Overcast
2:35 AM 38.7 °F 32.4 °F 33.3 °F 81% 30.19 in 10.0 mi WSW 9.2 mph - N/A   Overcast
2:55 AM 38.7 °F 32.9 °F 33.6 °F 82% 30.18 in 10.0 mi WSW 8.1 mph - N/A   Overcast
3:15 AM 39.2 °F 34.2 °F 33.6 °F 80% 30.17 in 10.0 mi SW 6.9 mph - N/A   Overcast
3:35 AM 38.7 °F 32.9 °F 33.8 °F 83% 30.16 in 10.0 mi SW 8.1 mph - N/A   Overcast
3:55 AM 39.2 °F 34.2 °F 34.2 °F 82% 30.16 in 10.0 mi SSW 6.9 mph - N/A   Overcast
4:15 AM 39.2 °F 33.6 °F 34.2 °F 82% 30.16 in 10.0 mi SW 8.1 mph - N/A   Overcast
4:35 AM 39.2 °F 33.6 °F 34.3 °F 83% 30.16 in 10.0 mi SW 8.1 mph - N/A   Overcast
4:55 AM 39.2 °F 33.6 °F 34.7 °F 84% 30.15 in 10.0 mi SW 8.1 mph - N/A   Overcast
5:15 AM 38.8 °F 32.6 °F 34.7 °F 85% 30.15 in 10.0 mi SW 9.2 mph - N/A   Overcast
5:35 AM 38.1 °F 32.9 °F 34.3 °F 86% 30.15 in 10.0 mi SW 6.9 mph - N/A   Mostly Cloudy
6:15 AM 36.7 °F 30.5 °F 34.0 °F 90% 30.16 in 10.0 mi SW 8.1 mph - N/A   Clear
6:35 AM 36.9 °F 30.7 °F 34.2 °F 90% 30.15 in 10.0 mi SW 8.1 mph - N/A   Clear
6:55 AM 36.5 °F 31.0 °F 34.0 °F 91% 30.16 in 10.0 mi SW 6.9 mph - N/A   Clear
7:15 AM 36.1 °F 30.6 °F 34.2 °F 93% 30.16 in 10.0 mi SW 6.9 mph - N/A   Scattered Clouds
7:35 AM 35.6 °F 30.7 °F 34.0 °F 94% 30.17 in 10.0 mi SW 5.8 mph - N/A   Scattered Clouds
7:55 AM 35.1 °F 28.6 °F 34.0 °F 96% 30.17 in 10.0 mi SW 8.1 mph - N/A   Clear
8:15 AM 37.0 °F 30.4 °F 35.6 °F 95% 30.18 in 10.0 mi WSW 9.2 mph - N/A   Clear
8:35 AM 39.2 °F 32.0 °F 36.7 °F 91% 30.19 in 10.0 mi WSW 11.5 mph - N/A   Clear
8:55 AM 40.3 °F 32.6 °F 36.9 °F 88% 30.20 in 10.0 mi West 13.8 mph - N/A   Mostly Cloudy
9:15 AM 39.6 °F 32.1 °F 36.5 °F 89% 30.20 in 10.0 mi West 12.7 mph 17.3 mph N/A   Overcast
9:35 AM 40.1 °F 33.6 °F 36.0 °F 85% 30.20 in 10.0 mi West 10.4 mph - N/A   Overcast
9:55 AM 41.5 °F 35.4 °F 36.9 °F 83% 30.20 in 10.0 mi West 10.4 mph - N/A   Overcast
10:15 AM 42.1 °F 35.2 °F 36.1 °F 79% 30.20 in 10.0 mi West 12.7 mph 16.1 mph N/A   Mostly Cloudy
10:35 AM 42.8 °F 37.0 °F 35.6 °F 76% 30.19 in 10.0 mi West 10.4 mph - N/A   Scattered Clouds
10:55 AM 43.3 °F 37.2 °F 34.9 °F 72% 30.19 in 10.0 mi NW 11.5 mph - N/A   Mostly Cloudy
11:35 AM 41.9 °F 35.0 °F 32.0 °F 68% 30.19 in 10.0 mi WNW 12.7 mph - N/A   Overcast
11:55 AM 41.2 °F 34.5 °F 32.0 °F 70% 30.19 in 10.0 mi NW 11.5 mph 21.9 mph N/A   Overcast
12:35 PM 39.6 °F 31.7 °F 31.8 °F 74% 30.20 in 10.0 mi NW 13.8 mph 18.4 mph N/A   Overcast
12:55 PM 39.4 °F 31.4 °F 31.3 °F 73% 30.20 in 10.0 mi NW 13.8 mph 18.4 mph N/A   Overcast
1:15 PM 39.9 °F 31.8 °F 31.8 °F 73% 30.21 in 10.0 mi NW 15.0 mph 19.6 mph N/A   Overcast
1:35 PM 39.4 °F 31.1 °F 31.1 °F 72% 30.22 in 10.0 mi NNW 15.0 mph - N/A   Overcast
1:55 PM 38.5 °F 30.7 °F 31.5 °F 76% 30.24 in 10.0 mi NNW 12.7 mph - N/A   Overcast
2:15 PM 37.6 °F 30.0 °F 30.9 °F 77% 30.25 in 10.0 mi NW 11.5 mph 20.7 mph N/A   Overcast
2:35 PM 37.4 °F 27.2 °F 30.2 °F 75% 30.26 in 10.0 mi NNW 19.6 mph 27.6 mph N/A   Overcast
2:55 PM 37.2 °F 29.1 °F 29.7 °F 74% 30.27 in 10.0 mi NW 12.7 mph 18.4 mph N/A   Overcast
3:15 PM 36.9 °F 30.1 °F 29.7 °F 75% 30.29 in 10.0 mi NNW 9.2 mph 16.1 mph N/A   Overcast
3:35 PM 36.5 °F 29.7 °F 29.1 °F 75% 30.30 in 10.0 mi NW 9.2 mph - N/A   Overcast
3:55 PM 36.3 °F 28.4 °F 28.4 °F 73% 30.31 in 10.0 mi NW 11.5 mph 17.3 mph N/A   Overcast
4:15 PM 36.0 °F 27.5 °F 28.6 °F 75% 30.31 in 10.0 mi NW 12.7 mph 17.3 mph N/A   Overcast
4:35 PM 35.6 °F 28.6 °F 28.0 °F 74% 30.33 in 10.0 mi NNW 9.2 mph - N/A   Overcast
4:55 PM 34.7 °F 26.9 °F 27.7 °F 76% 30.34 in 10.0 mi NNW 10.4 mph - N/A   Overcast
5:15 PM 33.8 °F 25.8 °F 27.0 °F 76% 30.34 in 10.0 mi NNW 10.4 mph - N/A   Mostly Cloudy
5:35 PM 32.9 °F 26.7 °F 27.1 °F 79% 30.35 in 10.0 mi North 6.9 mph - N/A   Scattered Clouds
5:55 PM 32.5 °F 27.1 °F 27.3 °F 81% 30.36 in 10.0 mi NNW 5.8 mph - N/A   Mostly Cloudy
6:15 PM 32.4 °F 27.9 °F 27.3 °F 82% 30.37 in 10.0 mi North 4.6 mph - N/A   Mostly Cloudy
6:35 PM 32.0 °F 28.7 °F 27.0 °F 82% 30.36 in 10.0 mi North 3.5 mph - N/A   Scattered Clouds
6:55 PM 31.3 °F 27.9 °F 27.1 °F 85% 30.37 in 10.0 mi WNW 3.5 mph - N/A   Clear
7:15 PM 31.6 °F - 26.4 °F 81% 30.38 in 10.0 mi Calm Calm - N/A   Clear
7:35 PM 30.9 °F - 26.2 °F 83% 30.38 in 10.0 mi Calm Calm - N/A   Clear
7:55 PM 30.4 °F - 26.8 °F 86% 30.38 in 10.0 mi Calm Calm - N/A   Clear
8:15 PM 29.7 °F - 26.8 °F 89% 30.39 in 10.0 mi Calm Calm - N/A   Clear
8:35 PM 29.3 °F 24.3 °F 25.7 °F 86% 30.39 in 10.0 mi North 4.6 mph - N/A   Clear
8:55 PM 29.1 °F - 25.9 °F 88% 30.39 in 10.0 mi Calm Calm - N/A   Clear
9:15 PM 29.3 °F - 26.1 °F 88% 30.40 in 10.0 mi Calm Calm - N/A   Clear
10:35 PM 25.7 °F - 25.0 °F 97% 30.41 in 5.0 mi Calm Calm - N/A   Clear
10:55 PM 27.1 °F 23.2 °F 25.5 °F 94% 30.41 in 7.0 mi NE 3.5 mph - N/A   Clear
11:35 PM 26.1 °F - 25.5 °F 98% 30.42 in 5.0 mi Calm Calm - N/A   Clear
11:55 PM 25.3 °F - 24.6 °F 97% 30.42 in 5.0 mi Calm Calm - N/A   Clear